Banksville, New York
Current Conditions -  °F | °C
As of 5:56 PM on Thursday 23 Oct 2014 (Local Time) from KHPN Reporting Station
Broken Clouds Broken Clouds  
Wind Chill: 42°   Ceiling: 6000
Heat Index: 49°   Visibility: 10mi
Dew Point: 43°   Wind: 18mph
Humidity: 80%   Direction: 330°NNW
Pressure: 29.71"   Gusts: 30mph
Location:  41.191°N, 73.6333°W
Report Text: KHPN 232156Z 33016G26KT 10SM SCT016 BKN060 09/06 A2971 RMK AO2 PK WND 34028/2109 SLP061 T00940061
Loading
Personal Weather Stations






























Interactive Weather Map
Tropical Storm Tracking
New forecast layout! Learn more

10-Day Weather Forecast

Advertisements
Track Severe Weather on mobile